sensor_id;sensor_type;location;lat;lon;timestamp;pressure;altitude;pressure_sealevel;temperature;humidity
4570;BME280;2297;51.442;6.996;2022-08-19T00:01:34;100059.69;;;21.59;54.23
4570;BME280;2297;51.442;6.996;2022-08-19T00:04:03;100070.56;;;21.57;54.47
4570;BME280;2297;51.442;6.996;2022-08-19T00:06:33;100063.34;;;21.58;54.35
4570;BME280;2297;51.442;6.996;2022-08-19T00:09:01;100063.56;;;21.55;54.56
4570;BME280;2297;51.442;6.996;2022-08-19T00:11:29;100070.00;;;21.52;54.61
4570;BME280;2297;51.442;6.996;2022-08-19T00:13:56;100064.00;;;21.49;54.74
4570;BME280;2297;51.442;6.996;2022-08-19T00:16:24;100068.09;;;21.41;54.92
4570;BME280;2297;51.442;6.996;2022-08-19T00:18:51;100071.50;;;21.43;55.17
4570;BME280;2297;51.442;6.996;2022-08-19T00:21:18;100067.00;;;21.44;54.98
4570;BME280;2297;51.442;6.996;2022-08-19T00:23:46;100062.50;;;21.44;54.74
4570;BME280;2297;51.442;6.996;2022-08-19T00:26:14;100060.78;;;21.43;54.69
4570;BME280;2297;51.442;6.996;2022-08-19T00:28:40;100064.41;;;21.42;54.88
4570;BME280;2297;51.442;6.996;2022-08-19T00:31:08;100066.13;;;21.43;54.81
4570;BME280;2297;51.442;6.996;2022-08-19T00:33:35;100064.41;;;21.42;54.88
4570;BME280;2297;51.442;6.996;2022-08-19T00:36:04;100057.78;;;21.35;55.05
4570;BME280;2297;51.442;6.996;2022-08-19T00:38:32;100059.69;;;21.33;55.09
4570;BME280;2297;51.442;6.996;2022-08-19T00:41:00;100055.47;;;21.29;55.23
4570;BME280;2297;51.442;6.996;2022-08-19T00:43:27;100052.59;;;21.32;55.31
4570;BME280;2297;51.442;6.996;2022-08-19T00:45:54;100054.31;;;21.33;55.13
4570;BME280;2297;51.442;6.996;2022-08-19T00:48:21;100050.00;;;21.31;55.29
4570;BME280;2297;51.442;6.996;2022-08-19T00:50:50;100052.78;;;21.29;55.26
4570;BME280;2297;51.442;6.996;2022-08-19T00:53:21;100061.19;;;21.24;55.38
4570;BME280;2297;51.442;6.996;2022-08-19T00:55:50;100059.88;;;21.17;55.62
4570;BME280;2297;51.442;6.996;2022-08-19T00:58:21;100055.28;;;21.19;55.45
4570;BME280;2297;51.442;6.996;2022-08-19T01:00:58;100053.66;;;21.17;55.61
4570;BME280;2297;51.442;6.996;2022-08-19T01:03:25;100046.44;;;21.17;55.79
4570;BME280;2297;51.442;6.996;2022-08-19T01:05:54;100044.84;;;21.15;55.62
4570;BME280;2297;51.442;6.996;2022-08-19T01:08:22;100047.63;;;21.13;55.87
4570;BME280;2297;51.442;6.996;2022-08-19T01:10:51;100048.69;;;21.10;55.84
4570;BME280;2297;51.442;6.996;2022-08-19T01:13:23;100045.28;;;21.08;56.03
4570;BME280;2297;51.442;6.996;2022-08-19T01:15:53;100050.53;;;21.10;55.96
4570;BME280;2297;51.442;6.996;2022-08-19T01:18:21;100048.69;;;21.10;55.87
4570;BME280;2297;51.442;6.996;2022-08-19T01:20:49;100054.53;;;21.04;56.15
4570;BME280;2297;51.442;6.996;2022-08-19T01:23:18;100060.97;;;21.02;56.03
4570;BME280;2297;51.442;6.996;2022-08-19T01:25:48;100052.97;;;21.00;56.12
4570;BME280;2297;51.442;6.996;2022-08-19T01:28:18;100051.06;;;21.02;56.11
4570;BME280;2297;51.442;6.996;2022-08-19T01:30:45;100053.31;;;20.96;56.19
4570;BME280;2297;51.442;6.996;2022-08-19T01:33:12;100056.13;;;20.94;56.34
4570;BME280;2297;51.442;6.996;2022-08-19T01:35:40;100054.50;;;20.91;56.34
4570;BME280;2297;51.442;6.996;2022-08-19T01:38:09;100055.56;;;20.89;56.31
4570;BME280;2297;51.442;6.996;2022-08-19T01:40:39;100049.44;;;20.87;56.39
4570;BME280;2297;51.442;6.996;2022-08-19T01:43:07;100043.31;;;20.85;56.34
4570;BME280;2297;51.442;6.996;2022-08-19T01:45:35;100048.88;;;20.82;56.43
4570;BME280;2297;51.442;6.996;2022-08-19T01:48:02;100045.47;;;20.80;56.55
4570;BME280;2297;51.442;6.996;2022-08-19T01:50:30;100048.88;;;20.82;56.48
4570;BME280;2297;51.442;6.996;2022-08-19T01:52:57;100050.28;;;20.74;56.78
4570;BME280;2297;51.442;6.996;2022-08-19T01:55:25;100053.19;;;20.71;56.82
4570;BME280;2297;51.442;6.996;2022-08-19T01:57:56;100042.84;;;20.65;57.09
4570;BME280;2297;51.442;6.996;2022-08-19T02:00:26;100048.09;;;20.67;57.13
4570;BME280;2297;51.442;6.996;2022-08-19T02:02:54;100049.25;;;20.63;57.22
4570;BME280;2297;51.442;6.996;2022-08-19T02:05:20;100053.41;;;20.54;57.46
4570;BME280;2297;51.442;6.996;2022-08-19T02:08:10;100045.72;;;20.62;57.33
4570;BME280;2297;51.442;6.996;2022-08-19T02:10:39;100041.13;;;20.64;57.05
4570;BME280;2297;51.442;6.996;2022-08-19T02:13:08;100038.28;;;20.53;57.52
4570;BME280;2297;51.442;6.996;2022-08-19T02:15:34;100037.00;;;20.58;57.30
4570;BME280;2297;51.442;6.996;2022-08-19T02:18:01;100035.94;;;20.61;57.11
4570;BME280;2297;51.442;6.996;2022-08-19T02:20:28;100028.41;;;20.53;57.39
4570;BME280;2297;51.442;6.996;2022-08-19T02:22:54;100029.69;;;20.48;57.61
4570;BME280;2297;51.442;6.996;2022-08-19T02:25:21;100036.78;;;20.49;57.55
4570;BME280;2297;51.442;6.996;2022-08-19T02:27:48;100045.56;;;20.51;57.47
4570;BME280;2297;51.442;6.996;2022-08-19T02:30:17;100039.03;;;20.55;57.49
4570;BME280;2297;51.442;6.996;2022-08-19T02:32:44;100044.28;;;20.56;57.32
4570;BME280;2297;51.442;6.996;2022-08-19T02:35:11;100050.94;;;20.51;57.34
4570;BME280;2297;51.442;6.996;2022-08-19T02:38:09;100044.84;;;20.49;57.37
4570;BME280;2297;51.442;6.996;2022-08-19T02:40:55;100041.88;;;20.39;57.99
4570;BME280;2297;51.442;6.996;2022-08-19T02:43:22;100046.41;;;20.38;57.83
4570;BME280;2297;51.442;6.996;2022-08-19T02:45:51;100046.41;;;20.38;57.88
4570;BME280;2297;51.442;6.996;2022-08-19T02:48:19;100057.06;;;20.25;58.11
4570;BME280;2297;51.442;6.996;2022-08-19T02:50:47;100049.13;;;20.24;58.25
4570;BME280;2297;51.442;6.996;2022-08-19T02:53:17;100055.16;;;20.27;58.22
4570;BME280;2297;51.442;6.996;2022-08-19T02:58:58;100056.56;;;20.33;58.21
4570;BME280;2297;51.442;6.996;2022-08-19T03:01:29;100059.03;;;20.36;57.99
4570;BME280;2297;51.442;6.996;2022-08-19T03:03:57;100056.66;;;20.32;58.08
4570;BME280;2297;51.442;6.996;2022-08-19T03:06:25;100054.09;;;20.30;58.20
4570;BME280;2297;51.442;6.996;2022-08-19T03:08:52;100052.56;;;20.26;58.19
4570;BME280;2297;51.442;6.996;2022-08-19T03:11:22;100054.13;;;20.16;58.63
4570;BME280;2297;51.442;6.996;2022-08-19T03:13:49;100051.75;;;20.11;58.70
4570;BME280;2297;51.442;6.996;2022-08-19T03:16:16;100048.00;;;20.14;58.80
4570;BME280;2297;51.442;6.996;2022-08-19T03:18:45;100045.53;;;20.10;59.03
4570;BME280;2297;51.442;6.996;2022-08-19T03:21:15;100051.56;;;20.14;58.90
4570;BME280;2297;51.442;6.996;2022-08-19T03:23:42;100048.78;;;20.16;59.06
4570;BME280;2297;51.442;6.996;2022-08-19T03:26:08;100046.84;;;20.18;58.88
4570;BME280;2297;51.442;6.996;2022-08-19T03:28:35;100054.25;;;20.14;58.85
4570;BME280;2297;51.442;6.996;2022-08-19T03:31:04;100053.56;;;20.10;59.06
4570;BME280;2297;51.442;6.996;2022-08-19T03:33:32;100053.69;;;20.09;59.27
4570;BME280;2297;51.442;6.996;2022-08-19T03:36:03;100051.19;;;20.06;59.27
4570;BME280;2297;51.442;6.996;2022-08-19T03:38:30;100055.47;;;20.08;59.32
4570;BME280;2297;51.442;6.996;2022-08-19T03:40:57;100052.81;;;20.08;59.06
4570;BME280;2297;51.442;6.996;2022-08-19T03:43:24;100045.81;;;20.06;59.11
4570;BME280;2297;51.442;6.996;2022-08-19T03:45:59;100047.75;;;20.04;59.20
4570;BME280;2297;51.442;6.996;2022-08-19T03:48:26;100046.13;;;20.01;59.30
4570;BME280;2297;51.442;6.996;2022-08-19T03:50:53;100049.38;;;20.06;59.10
4570;BME280;2297;51.442;6.996;2022-08-19T03:53:21;100048.59;;;20.04;58.93
4570;BME280;2297;51.442;6.996;2022-08-19T03:55:47;100048.25;;;19.96;59.44
4570;BME280;2297;51.442;6.996;2022-08-19T03:58:14;100050.72;;;19.99;59.26
4570;BME280;2297;51.442;6.996;2022-08-19T04:00:42;100046.53;;;19.95;59.65
4570;BME280;2297;51.442;6.996;2022-08-19T04:03:08;100061.25;;;19.88;59.76
4570;BME280;2297;51.442;6.996;2022-08-19T04:05:35;100062.59;;;19.66;60.49
4570;BME280;2297;51.442;6.996;2022-08-19T04:08:03;100054.75;;;19.77;60.08
4570;BME280;2297;51.442;6.996;2022-08-19T04:10:35;100061.63;;;19.82;60.06
4570;BME280;2297;51.442;6.996;2022-08-19T04:13:02;100060.69;;;19.83;60.06
4570;BME280;2297;51.442;6.996;2022-08-19T04:15:29;100057.22;;;19.81;60.22
4570;BME280;2297;51.442;6.996;2022-08-19T04:17:59;100051.69;;;19.84;60.05
4570;BME280;2297;51.442;6.996;2022-08-19T04:20:25;100065.94;;;19.84;60.05
4570;BME280;2297;51.442;6.996;2022-08-19T04:22:52;100058.75;;;19.85;60.19
4570;BME280;2297;51.442;6.996;2022-08-19T04:25:19;100052.53;;;19.84;59.90
4570;BME280;2297;51.442;6.996;2022-08-19T04:27:47;100056.59;;;19.77;60.38
4570;BME280;2297;51.442;6.996;2022-08-19T04:30:14;100049.41;;;19.77;60.33
4570;BME280;2297;51.442;6.996;2022-08-19T04:32:42;100059.16;;;19.78;60.37
4570;BME280;2297;51.442;6.996;2022-08-19T04:35:10;100058.19;;;19.79;60.35
4570;BME280;2297;51.442;6.996;2022-08-19T04:37:38;100059.16;;;19.78;60.25
4570;BME280;2297;51.442;6.996;2022-08-19T04:40:06;100060.69;;;19.83;60.28
4570;BME280;2297;51.442;6.996;2022-08-19T04:42:52;100066.03;;;19.83;60.23
4570;BME280;2297;51.442;6.996;2022-08-19T04:45:19;100074.81;;;19.85;60.18
4570;BME280;2297;51.442;6.996;2022-08-19T04:47:45;100072.25;;;19.83;60.17
4570;BME280;2297;51.442;6.996;2022-08-19T04:50:12;100069.66;;;19.82;60.18
4570;BME280;2297;51.442;6.996;2022-08-19T04:52:39;100067.09;;;19.80;60.11
4570;BME280;2297;51.442;6.996;2022-08-19T04:55:08;100072.44;;;19.80;60.23
4570;BME280;2297;51.442;6.996;2022-08-19T04:57:34;100074.25;;;19.79;60.32
4570;BME280;2297;51.442;6.996;2022-08-19T05:00:09;100073.13;;;19.84;60.40
4570;BME280;2297;51.442;6.996;2022-08-19T05:02:48;100085.75;;;19.82;60.37
4570;BME280;2297;51.442;6.996;2022-08-19T05:05:15;100084.91;;;19.81;60.36
4570;BME280;2297;51.442;6.996;2022-08-19T05:07:42;100083.84;;;19.84;60.41
4570;BME280;2297;51.442;6.996;2022-08-19T05:10:09;100094.47;;;19.85;60.10
4570;BME280;2297;51.442;6.996;2022-08-19T05:12:36;100094.56;;;19.84;60.17
4570;BME280;2297;51.442;6.996;2022-08-19T05:15:05;100103.56;;;19.83;60.05
4570;BME280;2297;51.442;6.996;2022-08-19T05:17:35;100097.25;;;19.84;60.19
4570;BME280;2297;51.442;6.996;2022-08-19T05:20:03;100095.09;;;19.89;60.14
4570;BME280;2297;51.442;6.996;2022-08-19T05:22:47;100099.50;;;19.90;60.15
4570;BME280;2297;51.442;6.996;2022-08-19T05:25:18;100106.41;;;19.94;60.05
4570;BME280;2297;51.442;6.996;2022-08-19T05:27:45;100106.59;;;19.91;60.13
4570;BME280;2297;51.442;6.996;2022-08-19T05:30:12;100106.22;;;19.83;60.38
4570;BME280;2297;51.442;6.996;2022-08-19T05:32:43;100103.34;;;19.86;60.39
4570;BME280;2297;51.442;6.996;2022-08-19T05:35:10;100105.06;;;19.87;60.53
4570;BME280;2297;51.442;6.996;2022-08-19T05:37:37;100112.56;;;19.96;60.16
4570;BME280;2297;51.442;6.996;2022-08-19T05:40:06;100110.56;;;20.00;60.08
4570;BME280;2297;51.442;6.996;2022-08-19T05:42:33;100108.50;;;20.03;59.94
4570;BME280;2297;51.442;6.996;2022-08-19T05:45:00;100106.63;;;20.05;59.98
4570;BME280;2297;51.442;6.996;2022-08-19T05:47:27;100110.81;;;20.09;60.03
4570;BME280;2297;51.442;6.996;2022-08-19T05:49:55;100111.19;;;20.03;60.12
4570;BME280;2297;51.442;6.996;2022-08-19T05:52:21;100104.69;;;20.07;60.24
4570;BME280;2297;51.442;6.996;2022-08-19T05:54:48;100111.88;;;20.07;60.06
4570;BME280;2297;51.442;6.996;2022-08-19T05:57:16;100115.72;;;20.03;60.05
4570;BME280;2297;51.442;6.996;2022-08-19T05:59:43;100116.16;;;20.09;60.07
4570;BME280;2297;51.442;6.996;2022-08-19T06:02:11;100115.31;;;20.09;60.16
4570;BME280;2297;51.442;6.996;2022-08-19T06:04:38;100099.25;;;20.09;60.22
4570;BME280;2297;51.442;6.996;2022-08-19T06:07:09;100100.31;;;20.06;60.66
4570;BME280;2297;51.442;6.996;2022-08-19T06:09:36;100095.88;;;19.91;61.15
4570;BME280;2297;51.442;6.996;2022-08-19T06:12:03;100103.66;;;19.96;61.15
4570;BME280;2297;51.442;6.996;2022-08-19T06:14:31;100106.25;;;19.97;61.38
4570;BME280;2297;51.442;6.996;2022-08-19T06:16:59;100105.84;;;19.74;62.20
4570;BME280;2297;51.442;6.996;2022-08-19T06:19:28;100105.44;;;19.81;62.36
4570;BME280;2297;51.442;6.996;2022-08-19T06:25:14;100111.22;;;19.74;62.99
4570;BME280;2297;51.442;6.996;2022-08-19T06:27:42;100109.59;;;19.57;63.73
4570;BME280;2297;51.442;6.996;2022-08-19T06:30:10;100113.50;;;19.37;64.62
4570;BME280;2297;51.442;6.996;2022-08-19T06:32:37;100111.00;;;19.49;64.20
4570;BME280;2297;51.442;6.996;2022-08-19T06:35:05;100112.53;;;19.53;64.04
4570;BME280;2297;51.442;6.996;2022-08-19T06:37:32;100112.22;;;18.98;66.16
4570;BME280;2297;51.442;6.996;2022-08-19T06:39:59;100113.00;;;19.15;65.52
4570;BME280;2297;51.442;6.996;2022-08-19T06:42:27;100101.63;;;19.27;65.21
4570;BME280;2297;51.442;6.996;2022-08-19T06:44:54;100102.00;;;19.35;64.98
4570;BME280;2297;51.442;6.996;2022-08-19T06:47:21;100107.44;;;19.34;65.20
4570;BME280;2297;51.442;6.996;2022-08-19T06:49:48;100108.31;;;19.49;64.42
4570;BME280;2297;51.442;6.996;2022-08-19T06:52:15;100109.28;;;19.48;64.40
4570;BME280;2297;51.442;6.996;2022-08-19T06:54:41;100121.50;;;19.52;64.16
4570;BME280;2297;51.442;6.996;2022-08-19T06:57:08;100114.84;;;19.59;63.90
4570;BME280;2297;51.442;6.996;2022-08-19T06:59:41;100117.31;;;19.62;63.83
4570;BME280;2297;51.442;6.996;2022-08-19T07:02:08;100111.19;;;19.45;64.44
4570;BME280;2297;51.442;6.996;2022-08-19T07:04:35;100112.44;;;19.54;64.09
4570;BME280;2297;51.442;6.996;2022-08-19T07:07:06;100111.38;;;19.42;64.20
4570;BME280;2297;51.442;6.996;2022-08-19T07:09:35;100106.59;;;19.48;64.29
4570;BME280;2297;51.442;6.996;2022-08-19T07:12:04;100111.00;;;19.49;64.31
4570;BME280;2297;51.442;6.996;2022-08-19T07:14:32;100111.78;;;19.51;64.37
4570;BME280;2297;51.442;6.996;2022-08-19T07:17:03;100111.06;;;19.33;64.92
4570;BME280;2297;51.442;6.996;2022-08-19T07:19:30;100111.59;;;19.54;64.22
4570;BME280;2297;51.442;6.996;2022-08-19T07:21:57;100112.63;;;19.51;64.28
4570;BME280;2297;51.442;6.996;2022-08-19T07:24:26;100121.25;;;19.71;63.86
4570;BME280;2297;51.442;6.996;2022-08-19T07:26:55;100123.94;;;19.85;63.33
4570;BME280;2297;51.442;6.996;2022-08-19T07:29:22;100127.56;;;19.84;63.33
4570;BME280;2297;51.442;6.996;2022-08-19T07:31:49;100141.44;;;19.76;63.37
4570;BME280;2297;51.442;6.996;2022-08-19T07:34:18;100140.28;;;19.81;63.56
4570;BME280;2297;51.442;6.996;2022-08-19T07:36:45;100140.84;;;19.57;64.53
4570;BME280;2297;51.442;6.996;2022-08-19T07:39:14;100146.59;;;19.79;63.87
4570;BME280;2297;51.442;6.996;2022-08-19T07:41:42;100152.13;;;19.48;65.05
4570;BME280;2297;51.442;6.996;2022-08-19T07:44:09;100156.91;;;19.57;64.68
4570;BME280;2297;51.442;6.996;2022-08-19T07:46:39;100165.31;;;19.36;65.76
4570;BME280;2297;51.442;6.996;2022-08-19T07:49:07;100160.91;;;19.35;65.92
4570;BME280;2297;51.442;6.996;2022-08-19T07:51:44;100162.16;;;19.44;65.84
4570;BME280;2297;51.442;6.996;2022-08-19T07:54:11;100162.66;;;19.51;65.60
4570;BME280;2297;51.442;6.996;2022-08-19T07:56:38;100172.59;;;19.63;65.19
4570;BME280;2297;51.442;6.996;2022-08-19T07:59:05;100169.00;;;19.78;64.58
4570;BME280;2297;51.442;6.996;2022-08-19T08:01:33;100168.78;;;19.67;65.00
4570;BME280;2297;51.442;6.996;2022-08-19T08:03:59;100178.16;;;19.60;65.29
4570;BME280;2297;51.442;6.996;2022-08-19T08:06:45;100178.78;;;19.94;64.47
4570;BME280;2297;51.442;6.996;2022-08-19T08:09:32;100185.28;;;20.04;64.16
4570;BME280;2297;51.442;6.996;2022-08-19T08:12:01;100184.44;;;20.18;63.66
4570;BME280;2297;51.442;6.996;2022-08-19T08:14:30;100183.31;;;20.35;63.21
4570;BME280;2297;51.442;6.996;2022-08-19T08:16:58;100184.91;;;20.25;63.64
4570;BME280;2297;51.442;6.996;2022-08-19T08:19:26;100178.94;;;20.34;63.47
4570;BME280;2297;51.442;6.996;2022-08-19T08:21:57;100181.41;;;20.52;63.00
4570;BME280;2297;51.442;6.996;2022-08-19T08:24:24;100180.13;;;20.72;62.24
4570;BME280;2297;51.442;6.996;2022-08-19T08:26:52;100193.00;;;21.07;61.32
4570;BME280;2297;51.442;6.996;2022-08-19T08:29:18;100187.91;;;21.17;60.67
4570;BME280;2297;51.442;6.996;2022-08-19T08:31:46;100185.09;;;21.46;59.65
4570;BME280;2297;51.442;6.996;2022-08-19T08:34:14;100184.09;;;21.47;59.55
4570;BME280;2297;51.442;6.996;2022-08-19T08:36:43;100181.66;;;21.16;59.90
4570;BME280;2297;51.442;6.996;2022-08-19T08:39:13;100191.97;;;21.22;59.07
4570;BME280;2297;51.442;6.996;2022-08-19T08:41:45;100187.41;;;20.97;58.71
4570;BME280;2297;51.442;6.996;2022-08-19T08:44:16;100181.53;;;20.77;59.29
4570;BME280;2297;51.442;6.996;2022-08-19T08:46:47;100189.75;;;21.29;57.97
4570;BME280;2297;51.442;6.996;2022-08-19T08:49:26;100192.38;;;21.16;57.50
4570;BME280;2297;51.442;6.996;2022-08-19T08:52:00;100195.66;;;20.94;57.38
4570;BME280;2297;51.442;6.996;2022-08-19T08:54:35;100186.00;;;21.32;56.53
4570;BME280;2297;51.442;6.996;2022-08-19T08:57:07;100190.16;;;21.63;55.79
4570;BME280;2297;51.442;6.996;2022-08-19T08:59:39;100179.84;;;21.83;54.75
4570;BME280;2297;51.442;6.996;2022-08-19T09:02:25;100188.44;;;22.14;54.15
4570;BME280;2297;51.442;6.996;2022-08-19T09:04:53;100191.66;;;21.80;53.94
4570;BME280;2297;51.442;6.996;2022-08-19T09:07:28;100187.13;;;21.68;54.02
4570;BME280;2297;51.442;6.996;2022-08-19T09:10:09;100195.53;;;21.63;53.86
4570;BME280;2297;51.442;6.996;2022-08-19T09:12:47;100186.06;;;21.96;52.81
4570;BME280;2297;51.442;6.996;2022-08-19T09:15:25;100177.03;;;21.71;53.54
4570;BME280;2297;51.442;6.996;2022-08-19T09:17:54;100168.63;;;21.37;54.76
4570;BME280;2297;51.442;6.996;2022-08-19T09:20:25;100175.41;;;21.82;53.84
4570;BME280;2297;51.442;6.996;2022-08-19T09:22:51;100169.50;;;22.02;53.13
4570;BME280;2297;51.442;6.996;2022-08-19T09:25:21;100176.91;;;22.12;52.00
4570;BME280;2297;51.442;6.996;2022-08-19T09:27:50;100181.19;;;22.27;52.00
4570;BME280;2297;51.442;6.996;2022-08-19T09:30:21;100173.13;;;22.27;51.04
4570;BME280;2297;51.442;6.996;2022-08-19T09:32:49;100166.13;;;22.62;50.26
4570;BME280;2297;51.442;6.996;2022-08-19T09:35:18;100181.78;;;22.43;49.59
4570;BME280;2297;51.442;6.996;2022-08-19T09:37:47;100177.56;;;22.52;47.63
4570;BME280;2297;51.442;6.996;2022-08-19T09:40:15;100177.81;;;22.49;48.17
4570;BME280;2297;51.442;6.996;2022-08-19T09:42:44;100179.28;;;22.53;48.00
4570;BME280;2297;51.442;6.996;2022-08-19T09:45:13;100178.47;;;22.40;48.14
4570;BME280;2297;51.442;6.996;2022-08-19T09:47:40;100175.00;;;22.51;48.31
4570;BME280;2297;51.442;6.996;2022-08-19T09:50:09;100172.69;;;22.70;48.25
4570;BME280;2297;51.442;6.996;2022-08-19T09:52:36;100167.34;;;22.82;47.80
4570;BME280;2297;51.442;6.996;2022-08-19T09:55:03;100172.94;;;22.91;47.82
4570;BME280;2297;51.442;6.996;2022-08-19T09:57:30;100163.75;;;22.94;47.98
4570;BME280;2297;51.442;6.996;2022-08-19T09:59:58;100167.66;;;23.25;47.25
4570;BME280;2297;51.442;6.996;2022-08-19T10:02:25;100167.09;;;23.33;47.56
4570;BME280;2297;51.442;6.996;2022-08-19T10:04:52;100168.56;;;23.37;47.40
4570;BME280;2297;51.442;6.996;2022-08-19T10:07:36;100164.22;;;23.23;46.90
4570;BME280;2297;51.442;6.996;2022-08-19T10:10:05;100166.03;;;23.23;47.50
4570;BME280;2297;51.442;6.996;2022-08-19T10:12:32;100165.81;;;23.26;47.18
4570;BME280;2297;51.442;6.996;2022-08-19T10:15:01;100165.66;;;23.40;47.06
4570;BME280;2297;51.442;6.996;2022-08-19T10:17:28;100172.13;;;23.14;47.23
4570;BME280;2297;51.442;6.996;2022-08-19T10:19:57;100167.13;;;23.20;46.93
4570;BME280;2297;51.442;6.996;2022-08-19T10:22:25;100172.69;;;23.30;46.69
4570;BME280;2297;51.442;6.996;2022-08-19T10:24:51;100171.94;;;23.28;46.92
4570;BME280;2297;51.442;6.996;2022-08-19T10:27:18;100162.56;;;22.98;47.95
4570;BME280;2297;51.442;6.996;2022-08-19T10:33:08;100156.13;;;23.59;46.79
4570;BME280;2297;51.442;6.996;2022-08-19T10:35:35;100153.94;;;23.75;46.52
4570;BME280;2297;51.442;6.996;2022-08-19T10:38:02;100149.78;;;23.94;45.86
4570;BME280;2297;51.442;6.996;2022-08-19T10:40:28;100149.78;;;23.71;46.11
4570;BME280;2297;51.442;6.996;2022-08-19T10:42:55;100150.97;;;23.56;46.27
4570;BME280;2297;51.442;6.996;2022-08-19T10:45:37;100151.59;;;23.24;47.01
4570;BME280;2297;51.442;6.996;2022-08-19T10:48:04;100159.13;;;23.32;46.34
4570;BME280;2297;51.442;6.996;2022-08-19T10:50:32;100154.13;;;23.38;46.33
4570;BME280;2297;51.442;6.996;2022-08-19T10:53:16;100155.25;;;23.58;45.71
4570;BME280;2297;51.442;6.996;2022-08-19T10:55:45;100155.16;;;23.71;45.48
4570;BME280;2297;51.442;6.996;2022-08-19T10:58:29;100151.84;;;23.56;45.36
4570;BME280;2297;51.442;6.996;2022-08-19T11:00:58;100159.03;;;23.45;44.95
4570;BME280;2297;51.442;6.996;2022-08-19T11:03:34;100152.72;;;23.80;44.38
4570;BME280;2297;51.442;6.996;2022-08-19T11:06:05;100155.44;;;24.14;43.75
4570;BME280;2297;51.442;6.996;2022-08-19T11:08:33;100160.09;;;24.23;43.31
4570;BME280;2297;51.442;6.996;2022-08-19T11:11:01;100158.00;;;23.92;43.21
4570;BME280;2297;51.442;6.996;2022-08-19T11:13:28;100156.91;;;24.18;43.20
4570;BME280;2297;51.442;6.996;2022-08-19T11:15:57;100164.28;;;24.04;43.24
4570;BME280;2297;51.442;6.996;2022-08-19T11:18:24;100162.91;;;23.99;43.40
4570;BME280;2297;51.442;6.996;2022-08-19T11:20:51;100163.22;;;23.60;44.16
4570;BME280;2297;51.442;6.996;2022-08-19T11:23:19;100160.34;;;23.97;43.67
4570;BME280;2297;51.442;6.996;2022-08-19T11:25:46;100155.66;;;23.88;43.01
4570;BME280;2297;51.442;6.996;2022-08-19T11:28:13;100159.59;;;24.18;43.20
4570;BME280;2297;51.442;6.996;2022-08-19T11:30:40;100162.28;;;24.18;43.09
4570;BME280;2297;51.442;6.996;2022-08-19T11:33:06;100157.66;;;24.08;43.07
4570;BME280;2297;51.442;6.996;2022-08-19T11:35:33;100157.88;;;24.28;42.16
4570;BME280;2297;51.442;6.996;2022-08-19T11:38:00;100155.31;;;24.04;41.86
4570;BME280;2297;51.442;6.996;2022-08-19T11:40:29;100145.72;;;23.88;42.06
4570;BME280;2297;51.442;6.996;2022-08-19T11:42:56;100155.94;;;24.19;41.30
4570;BME280;2297;51.442;6.996;2022-08-19T11:45:23;100158.59;;;24.41;40.81
4570;BME280;2297;51.442;6.996;2022-08-19T11:47:50;100145.31;;;24.50;40.05
4570;BME280;2297;51.442;6.996;2022-08-19T11:50:16;100144.00;;;24.88;39.49
4570;BME280;2297;51.442;6.996;2022-08-19T11:52:44;100132.66;;;24.62;40.47
4570;BME280;2297;51.442;6.996;2022-08-19T11:58:35;100140.47;;;24.21;41.48
4570;BME280;2297;51.442;6.996;2022-08-19T12:01:05;100138.34;;;24.36;40.70
4570;BME280;2297;51.442;6.996;2022-08-19T12:03:33;100135.53;;;24.37;39.84
4570;BME280;2297;51.442;6.996;2022-08-19T12:06:03;100139.78;;;24.63;39.03
4570;BME280;2297;51.442;6.996;2022-08-19T12:08:30;100142.84;;;24.58;39.14
4570;BME280;2297;51.442;6.996;2022-08-19T12:10:57;100140.47;;;24.76;38.91
4570;BME280;2297;51.442;6.996;2022-08-19T12:13:26;100132.53;;;24.63;39.68
4570;BME280;2297;51.442;6.996;2022-08-19T12:15:54;100132.94;;;24.58;39.63
4570;BME280;2297;51.442;6.996;2022-08-19T12:18:21;100131.25;;;24.79;39.84
4570;BME280;2297;51.442;6.996;2022-08-19T12:20:50;100120.22;;;25.03;39.60
4570;BME280;2297;51.442;6.996;2022-08-19T12:23:17;100130.22;;;24.91;38.02
4570;BME280;2297;51.442;6.996;2022-08-19T12:25:46;100132.88;;;25.02;38.00
4570;BME280;2297;51.442;6.996;2022-08-19T12:28:15;100127.16;;;25.17;37.61
4570;BME280;2297;51.442;6.996;2022-08-19T12:30:42;100118.06;;;25.18;37.21
4570;BME280;2297;51.442;6.996;2022-08-19T12:33:12;100119.19;;;25.36;36.69
4570;BME280;2297;51.442;6.996;2022-08-19T12:35:40;100124.34;;;25.39;36.52
4570;BME280;2297;51.442;6.996;2022-08-19T12:38:07;100119.09;;;25.05;37.45
4570;BME280;2297;51.442;6.996;2022-08-19T12:40:33;100123.13;;;25.11;37.59
4570;BME280;2297;51.442;6.996;2022-08-19T12:43:00;100117.09;;;25.19;37.53
4570;BME280;2297;51.442;6.996;2022-08-19T12:45:27;100111.41;;;25.22;37.63
4570;BME280;2297;51.442;6.996;2022-08-19T12:47:54;100116.72;;;24.91;37.34
4570;BME280;2297;51.442;6.996;2022-08-19T12:50:59;100110.06;;;24.95;37.22
4570;BME280;2297;51.442;6.996;2022-08-19T12:53:27;100114.44;;;25.29;36.22
4570;BME280;2297;51.442;6.996;2022-08-19T12:55:55;100111.94;;;25.58;34.48
4570;BME280;2297;51.442;6.996;2022-08-19T12:58:22;100110.66;;;25.62;34.55
4570;BME280;2297;51.442;6.996;2022-08-19T13:00:49;100116.81;;;25.95;33.26
4570;BME280;2297;51.442;6.996;2022-08-19T13:03:16;100114.09;;;25.95;33.02
4570;BME280;2297;51.442;6.996;2022-08-19T13:05:43;100117.03;;;26.23;32.57
4570;BME280;2297;51.442;6.996;2022-08-19T13:08:11;100105.25;;;26.44;32.89
4570;BME280;2297;51.442;6.996;2022-08-19T13:10:38;100117.94;;;26.53;32.60
4570;BME280;2297;51.442;6.996;2022-08-19T13:13:06;100116.13;;;26.63;32.56
4570;BME280;2297;51.442;6.996;2022-08-19T13:15:35;100107.00;;;26.64;32.28
4570;BME280;2297;51.442;6.996;2022-08-19T13:18:02;100098.44;;;26.88;32.24
4570;BME280;2297;51.442;6.996;2022-08-19T13:20:29;100100.41;;;27.26;32.51
4570;BME280;2297;51.442;6.996;2022-08-19T13:22:56;100088.94;;;27.42;32.10
4570;BME280;2297;51.442;6.996;2022-08-19T13:25:24;100100.22;;;27.37;31.91
4570;BME280;2297;51.442;6.996;2022-08-19T13:27:52;100091.84;;;27.20;31.79
4570;BME280;2297;51.442;6.996;2022-08-19T13:30:21;100089.03;;;26.93;32.40
4570;BME280;2297;51.442;6.996;2022-08-19T13:33:05;100082.19;;;26.79;33.34